createdAt,value
2023-04-30T00:01:18.518Z,99.90
2023-04-30T00:04:06.629Z,99.90
2023-04-30T00:06:55.694Z,99.90
2023-04-30T00:09:43.691Z,99.90
2023-04-30T00:12:31.714Z,99.90
2023-04-30T00:15:21.088Z,99.90
2023-04-30T00:18:09.189Z,99.90
2023-04-30T00:20:57.228Z,99.90
2023-04-30T00:23:45.418Z,99.90
2023-04-30T00:26:33.443Z,99.90
2023-04-30T00:29:21.471Z,99.90
2023-04-30T00:32:10.871Z,99.90
2023-04-30T00:34:59.055Z,99.90
2023-04-30T00:37:47.673Z,99.90
2023-04-30T00:40:36.062Z,99.90
2023-04-30T00:43:24.082Z,99.90
2023-04-30T00:46:12.147Z,99.90
2023-04-30T00:49:04.889Z,99.90
2023-04-30T00:51:53.336Z,99.90
2023-04-30T00:54:41.688Z,99.90
2023-04-30T00:57:30.101Z,99.90
2023-04-30T01:00:18.404Z,99.90
2023-04-30T01:03:07.377Z,99.90
2023-04-30T01:05:56.904Z,99.90
2023-04-30T01:08:45.766Z,99.90
2023-04-30T01:11:39.956Z,99.90
2023-04-30T01:14:29.836Z,99.90
2023-04-30T01:17:19.499Z,99.90
2023-04-30T01:20:08.565Z,99.90
2023-04-30T01:23:12.274Z,99.90
2023-04-30T01:26:11.348Z,99.90
2023-04-30T01:29:01.160Z,99.90
2023-04-30T01:31:49.203Z,99.90
2023-04-30T01:34:37.243Z,99.90
2023-04-30T01:37:30.237Z,99.90
2023-04-30T01:40:24.452Z,99.90
2023-04-30T01:43:18.193Z,99.90
2023-04-30T01:46:10.962Z,99.90
2023-04-30T01:49:05.297Z,99.90
2023-04-30T01:51:58.098Z,99.90
2023-04-30T01:54:47.208Z,99.90
2023-04-30T01:57:37.488Z,99.90
2023-04-30T02:00:25.745Z,99.90
2023-04-30T02:03:15.297Z,99.90
2023-04-30T02:06:03.431Z,99.90
2023-04-30T02:08:51.693Z,99.90
2023-04-30T02:11:39.679Z,99.90
2023-04-30T02:14:27.920Z,99.90
2023-04-30T02:17:15.932Z,99.90
2023-04-30T02:20:05.702Z,99.90
2023-04-30T02:22:53.862Z,99.90
2023-04-30T02:25:42.160Z,99.90
2023-04-30T02:28:30.330Z,99.90
2023-04-30T02:31:18.403Z,99.90
2023-04-30T02:34:06.420Z,99.90
2023-04-30T02:36:55.821Z,99.90
2023-04-30T02:39:43.847Z,99.90
2023-04-30T02:42:31.850Z,99.90
2023-04-30T02:45:19.867Z,99.90
2023-04-30T02:48:07.988Z,99.90
2023-04-30T02:50:56.265Z,99.90
2023-04-30T02:53:45.652Z,99.90
2023-04-30T02:56:33.719Z,99.90
2023-04-30T02:59:21.998Z,99.90
2023-04-30T03:02:10.086Z,99.90
2023-04-30T03:04:58.133Z,99.90
2023-04-30T03:07:46.131Z,99.90
2023-04-30T03:10:35.574Z,99.90
2023-04-30T03:13:25.826Z,99.90
2023-04-30T03:16:13.854Z,99.90
2023-04-30T03:19:01.908Z,99.90
2023-04-30T03:21:50.162Z,99.90
2023-04-30T03:24:38.194Z,99.90
2023-04-30T03:27:27.532Z,99.90
2023-04-30T03:30:15.644Z,99.90
2023-04-30T03:33:05.998Z,99.90
2023-04-30T03:35:54.121Z,99.90
2023-04-30T03:38:42.923Z,99.90
2023-04-30T03:41:30.980Z,99.90
2023-04-30T03:44:20.395Z,99.90
2023-04-30T03:47:08.416Z,99.90
2023-04-30T03:49:57.078Z,99.90
2023-04-30T03:52:45.213Z,99.90
2023-04-30T03:55:33.600Z,99.90
2023-04-30T03:58:22.137Z,99.90
2023-04-30T04:01:11.491Z,99.90
2023-04-30T04:03:59.915Z,99.90
2023-04-30T04:06:48.027Z,99.90
2023-04-30T04:09:36.230Z,99.90
2023-04-30T04:12:24.414Z,99.90
2023-04-30T04:15:12.575Z,99.90
2023-04-30T04:18:02.074Z,99.90
2023-04-30T04:20:50.131Z,99.90
2023-04-30T04:23:38.267Z,99.90
2023-04-30T04:26:28.774Z,99.90
2023-04-30T04:29:16.784Z,99.90
2023-04-30T04:32:06.095Z,99.90
2023-04-30T04:34:56.987Z,99.90
2023-04-30T04:37:45.067Z,99.90
2023-04-30T04:40:33.107Z,99.90
2023-04-30T04:43:21.322Z,99.90
2023-04-30T04:46:10.578Z,99.90
2023-04-30T04:48:59.803Z,99.90
2023-04-30T04:51:49.164Z,99.90
2023-04-30T04:54:37.195Z,99.90
2023-04-30T04:57:25.775Z,99.90
2023-04-30T05:00:14.100Z,99.90
2023-04-30T05:03:02.222Z,99.90
2023-04-30T05:05:50.280Z,99.90
2023-04-30T05:08:39.666Z,99.90
2023-04-30T05:11:27.672Z,99.90
2023-04-30T05:14:15.847Z,99.90
2023-04-30T05:17:04.028Z,99.90
2023-04-30T05:19:52.370Z,99.90
2023-04-30T05:22:40.399Z,99.90
2023-04-30T05:25:32.396Z,99.90
2023-04-30T05:28:20.648Z,99.90
2023-04-30T05:31:08.765Z,99.90
2023-04-30T05:33:56.753Z,99.90
2023-04-30T05:36:45.574Z,99.90
2023-04-30T05:39:33.596Z,99.90
2023-04-30T05:42:22.946Z,99.90
2023-04-30T05:45:12.359Z,99.90
2023-04-30T05:48:01.989Z,99.90
2023-04-30T05:50:50.177Z,99.90
2023-04-30T05:53:38.207Z,99.90
2023-04-30T05:56:26.236Z,99.90
2023-04-30T05:59:15.596Z,99.90
2023-04-30T06:02:03.732Z,99.90
2023-04-30T06:04:51.865Z,99.90
2023-04-30T06:07:39.933Z,99.90
2023-04-30T06:10:28.006Z,99.90
2023-04-30T06:13:16.601Z,99.90
2023-04-30T06:16:06.506Z,99.90
2023-04-30T06:18:54.582Z,99.90
2023-04-30T06:21:43.890Z,99.90
2023-04-30T06:24:31.902Z,99.90
2023-04-30T06:27:19.913Z,99.90
2023-04-30T06:30:08.976Z,99.90
2023-04-30T06:32:58.530Z,99.90
2023-04-30T06:35:46.587Z,99.90
2023-04-30T06:38:34.619Z,99.90
2023-04-30T06:41:22.679Z,99.90
2023-04-30T06:44:10.732Z,99.90
2023-04-30T06:46:58.817Z,99.90
2023-04-30T06:49:48.167Z,99.90
2023-04-30T06:52:36.221Z,99.90
2023-04-30T06:55:24.370Z,99.90
2023-04-30T06:58:12.518Z,99.90
2023-04-30T07:01:01.083Z,99.90
2023-04-30T07:03:49.453Z,99.90
2023-04-30T07:06:39.185Z,99.90
2023-04-30T07:09:27.380Z,99.90
2023-04-30T07:12:15.638Z,99.90
2023-04-30T07:15:03.718Z,99.90
2023-04-30T07:17:51.860Z,99.90
2023-04-30T07:20:39.949Z,99.90
2023-04-30T07:23:30.662Z,99.90
2023-04-30T07:26:18.809Z,99.90
2023-04-30T07:29:06.847Z,99.90
2023-04-30T07:31:55.351Z,99.90
2023-04-30T07:34:43.594Z,99.90
2023-04-30T07:37:33.013Z,99.90
2023-04-30T07:40:34.757Z,99.90
2023-04-30T07:43:24.112Z,99.90
2023-04-30T07:46:12.296Z,99.90
2023-04-30T07:49:00.616Z,99.90
2023-04-30T07:51:49.037Z,99.90
2023-04-30T07:54:38.727Z,99.90
2023-04-30T07:57:28.131Z,99.90
2023-04-30T08:00:17.525Z,99.90
2023-04-30T08:03:05.679Z,99.90
2023-04-30T08:05:54.050Z,99.90
2023-04-30T08:08:42.096Z,99.90
2023-04-30T08:11:30.202Z,99.90
2023-04-30T08:14:19.847Z,99.90
2023-04-30T08:17:07.969Z,99.90
2023-04-30T08:19:56.450Z,99.90
2023-04-30T08:22:44.842Z,99.90
2023-04-30T08:25:33.061Z,99.90
2023-04-30T08:28:21.202Z,99.90
2023-04-30T08:31:11.003Z,99.90
2023-04-30T08:33:59.043Z,99.90
2023-04-30T08:36:47.134Z,99.90
2023-04-30T08:39:35.243Z,99.90
2023-04-30T08:42:24.907Z,99.90
2023-04-30T08:45:14.605Z,99.90
2023-04-30T08:48:05.005Z,99.90
2023-04-30T08:50:53.265Z,99.90
2023-04-30T08:53:41.349Z,99.90
2023-04-30T08:56:31.369Z,99.90
2023-04-30T08:59:19.411Z,99.90
2023-04-30T09:02:07.666Z,99.90
2023-04-30T09:04:57.244Z,99.90
2023-04-30T09:10:38.067Z,99.90
2023-04-30T09:13:26.329Z,99.90
2023-04-30T09:16:14.440Z,99.90
2023-04-30T09:19:02.653Z,99.90
2023-04-30T09:21:52.382Z,99.90
2023-04-30T09:24:46.691Z,99.90
2023-04-30T09:27:36.661Z,99.90
2023-04-30T09:30:31.274Z,99.90
2023-04-30T09:33:19.593Z,99.90
2023-04-30T09:36:10.098Z,99.90
2023-04-30T09:39:08.988Z,99.90
2023-04-30T09:42:08.190Z,99.90
2023-04-30T09:44:56.246Z,99.90
2023-04-30T09:47:44.780Z,99.90
2023-04-30T09:50:38.074Z,99.90
2023-04-30T09:53:26.078Z,99.90
2023-04-30T09:56:17.314Z,99.90
2023-04-30T09:59:06.213Z,99.90
2023-04-30T10:01:54.692Z,99.90
2023-04-30T10:04:43.712Z,99.90
2023-04-30T10:07:33.775Z,99.90
2023-04-30T10:10:22.686Z,99.90
2023-04-30T10:13:15.839Z,99.90
2023-04-30T10:16:08.544Z,99.90
2023-04-30T10:18:58.567Z,99.90
2023-04-30T10:21:47.195Z,99.90
2023-04-30T10:24:35.702Z,99.90
2023-04-30T10:27:23.818Z,99.90
2023-04-30T10:30:13.721Z,99.90
2023-04-30T10:33:06.828Z,99.90
2023-04-30T10:35:57.993Z,99.90
2023-04-30T10:38:48.414Z,99.90
2023-04-30T10:41:36.594Z,99.90
2023-04-30T10:44:27.503Z,99.90
2023-04-30T10:47:19.212Z,99.90
2023-04-30T10:50:09.976Z,99.90
2023-04-30T10:53:03.671Z,99.90
2023-04-30T10:55:54.374Z,99.30
2023-04-30T10:58:44.105Z,99.90
2023-04-30T11:01:32.659Z,99.90
2023-04-30T11:04:22.313Z,99.90
2023-04-30T11:07:10.883Z,99.00
2023-04-30T11:09:59.054Z,99.00
2023-04-30T11:12:50.500Z,98.60
2023-04-30T11:15:41.474Z,97.00
2023-04-30T11:18:29.710Z,96.00
2023-04-30T11:21:21.423Z,95.10
2023-04-30T11:24:09.517Z,94.30
2023-04-30T11:27:06.992Z,94.80
2023-04-30T11:29:56.265Z,94.40
2023-04-30T11:32:46.313Z,93.90
2023-04-30T11:35:34.623Z,95.20
2023-04-30T11:38:26.825Z,93.10
2023-04-30T11:41:14.972Z,94.50
2023-04-30T11:44:03.935Z,91.90
2023-04-30T11:46:52.258Z,91.50
2023-04-30T11:49:40.450Z,91.70
2023-04-30T11:52:29.372Z,93.50
2023-04-30T11:55:19.943Z,92.50
2023-04-30T11:58:10.654Z,91.80
2023-04-30T12:01:00.818Z,91.50
2023-04-30T12:03:49.558Z,91.40
2023-04-30T12:06:37.851Z,92.10
2023-04-30T12:09:25.991Z,91.20
2023-04-30T12:12:15.553Z,91.00
2023-04-30T12:15:12.141Z,90.20
2023-04-30T12:18:01.440Z,90.20
2023-04-30T12:20:49.553Z,90.50
2023-04-30T12:23:38.052Z,91.30
2023-04-30T12:26:26.150Z,88.50
2023-04-30T12:29:16.194Z,90.10
2023-04-30T12:32:04.468Z,87.10
2023-04-30T12:34:52.611Z,89.80
2023-04-30T12:37:43.152Z,89.20
2023-04-30T12:40:31.383Z,90.20
2023-04-30T12:43:19.539Z,86.80
2023-04-30T12:46:09.084Z,87.90
2023-04-30T12:48:57.311Z,89.80
2023-04-30T12:51:45.474Z,86.30
2023-04-30T12:54:33.565Z,88.20
2023-04-30T12:57:21.966Z,85.50
2023-04-30T13:00:10.994Z,85.20
2023-04-30T13:03:00.822Z,85.10
2023-04-30T13:05:49.775Z,83.10
2023-04-30T13:08:49.566Z,85.60
2023-04-30T13:11:44.791Z,86.40
2023-04-30T13:14:32.954Z,80.60
2023-04-30T13:17:22.666Z,82.00
2023-04-30T13:20:12.618Z,83.90
2023-04-30T13:23:00.688Z,82.00
2023-04-30T13:25:48.711Z,83.90
2023-04-30T13:28:36.751Z,80.80
2023-04-30T13:31:24.884Z,81.30
2023-04-30T13:34:12.942Z,80.40
2023-04-30T13:37:02.336Z,79.40
2023-04-30T13:39:50.373Z,77.80
2023-04-30T13:42:39.119Z,76.30
2023-04-30T13:45:27.187Z,76.90
2023-04-30T13:48:15.240Z,77.20
2023-04-30T13:51:03.293Z,79.00
2023-04-30T13:53:52.774Z,77.10
2023-04-30T13:56:40.963Z,76.50
2023-04-30T13:59:29.119Z,74.70
2023-04-30T14:02:17.440Z,75.10
2023-04-30T14:05:06.897Z,73.40
2023-04-30T14:07:55.131Z,74.70
2023-04-30T14:10:44.569Z,74.70
2023-04-30T14:13:32.965Z,72.20
2023-04-30T14:16:21.144Z,70.10
2023-04-30T14:19:09.648Z,73.00
2023-04-30T14:21:57.689Z,71.20
2023-04-30T14:24:45.710Z,68.70
2023-04-30T14:27:35.130Z,67.60
2023-04-30T14:30:23.231Z,68.80
2023-04-30T14:33:12.938Z,67.00
2023-04-30T14:36:01.155Z,64.70
2023-04-30T14:38:49.188Z,63.50
2023-04-30T14:41:37.719Z,66.40
2023-04-30T14:44:27.097Z,62.90
2023-04-30T14:47:15.161Z,61.60
2023-04-30T14:50:03.245Z,59.90
2023-04-30T14:52:51.438Z,58.10
2023-04-30T14:55:39.840Z,57.10
2023-04-30T14:58:27.938Z,56.40
2023-04-30T15:01:17.920Z,53.10
2023-04-30T15:04:06.167Z,52.60
2023-04-30T15:06:54.194Z,53.90
2023-04-30T15:09:44.744Z,53.30
2023-04-30T15:12:34.447Z,52.10
2023-04-30T15:15:27.849Z,49.90
2023-04-30T15:18:17.341Z,51.30
2023-04-30T15:21:05.518Z,50.40
2023-04-30T15:23:53.540Z,48.90
2023-04-30T15:26:42.198Z,49.60
2023-04-30T15:29:30.242Z,49.30
2023-04-30T15:32:18.237Z,47.30
2023-04-30T15:35:08.301Z,48.30
2023-04-30T15:37:56.310Z,48.50
2023-04-30T15:40:44.356Z,49.10
2023-04-30T15:43:32.692Z,48.70
2023-04-30T15:46:20.894Z,50.20
2023-04-30T15:49:09.998Z,49.30
2023-04-30T15:51:59.378Z,49.30
2023-04-30T15:54:47.421Z,48.80
2023-04-30T15:57:35.468Z,47.40
2023-04-30T16:00:23.993Z,46.70
2023-04-30T16:03:12.119Z,48.10
2023-04-30T16:06:01.181Z,47.10
2023-04-30T16:08:50.951Z,47.70
2023-04-30T16:11:39.842Z,47.80
2023-04-30T16:14:27.893Z,48.40
2023-04-30T16:17:16.285Z,47.60
2023-04-30T16:20:04.858Z,48.20
2023-04-30T16:22:52.893Z,47.90
2023-04-30T16:25:42.390Z,47.70
2023-04-30T16:28:31.257Z,48.60
2023-04-30T16:31:22.750Z,47.20
2023-04-30T16:34:12.177Z,46.70
2023-04-30T16:37:00.229Z,47.70
2023-04-30T16:39:48.241Z,47.50
2023-04-30T16:42:37.631Z,46.70
2023-04-30T16:45:26.202Z,47.20
2023-04-30T16:48:14.554Z,46.30
2023-04-30T16:51:02.585Z,47.20
2023-04-30T16:53:50.791Z,47.30
2023-04-30T16:56:38.805Z,48.10
2023-04-30T16:59:28.170Z,47.60
2023-04-30T17:02:16.309Z,46.90
2023-04-30T17:05:04.591Z,48.50
2023-04-30T17:07:52.651Z,47.90
2023-04-30T17:10:40.914Z,47.40
2023-04-30T17:13:30.786Z,48.60
2023-04-30T17:16:20.198Z,48.30
2023-04-30T17:19:08.703Z,47.80
2023-04-30T17:21:56.775Z,48.00
2023-04-30T17:24:44.830Z,48.10
2023-04-30T17:27:32.881Z,49.40
2023-04-30T17:30:21.110Z,50.40
2023-04-30T17:33:10.544Z,51.80
2023-04-30T17:35:58.603Z,52.70
2023-04-30T17:38:46.675Z,52.40
2023-04-30T17:41:34.989Z,52.60
2023-04-30T17:44:23.023Z,52.30
2023-04-30T17:47:11.490Z,53.90
2023-04-30T17:50:04.503Z,55.20
2023-04-30T17:52:54.106Z,56.40
2023-04-30T17:55:42.200Z,57.20
2023-04-30T17:58:30.698Z,58.50
2023-04-30T18:01:19.349Z,58.80
2023-04-30T18:04:08.323Z,59.40
2023-04-30T18:06:57.725Z,59.70
2023-04-30T18:09:47.324Z,60.40
2023-04-30T18:12:36.568Z,61.90
2023-04-30T18:15:24.635Z,62.60
2023-04-30T18:18:13.044Z,63.60
2023-04-30T18:21:01.360Z,63.90
2023-04-30T18:23:50.744Z,64.10
2023-04-30T18:26:38.764Z,65.10
2023-04-30T18:29:26.859Z,64.50
2023-04-30T18:32:15.901Z,66.80
2023-04-30T18:35:04.511Z,66.80
2023-04-30T18:37:52.550Z,67.30
2023-04-30T18:40:41.946Z,68.60
2023-04-30T18:43:30.028Z,68.80
2023-04-30T18:46:18.059Z,68.40
2023-04-30T18:49:06.119Z,69.30
2023-04-30T18:51:55.359Z,70.10
2023-04-30T18:54:43.535Z,70.50
2023-04-30T18:57:32.995Z,70.50
2023-04-30T19:00:21.083Z,71.40
2023-04-30T19:03:09.401Z,72.10
2023-04-30T19:05:57.860Z,73.30
2023-04-30T19:08:46.786Z,73.40
2023-04-30T19:11:35.651Z,74.50
2023-04-30T19:14:25.008Z,74.40
2023-04-30T19:17:14.102Z,74.90
2023-04-30T19:20:02.281Z,75.70
2023-04-30T19:22:50.529Z,75.90
2023-04-30T19:25:39.047Z,76.40
2023-04-30T19:28:27.133Z,76.70
2023-04-30T19:31:16.664Z,77.40
2023-04-30T19:34:04.861Z,78.80
2023-04-30T19:36:52.866Z,78.10
2023-04-30T19:39:40.906Z,79.80
2023-04-30T19:42:30.284Z,79.90
2023-04-30T19:45:18.430Z,81.20
2023-04-30T19:48:08.063Z,81.30
2023-04-30T19:50:58.151Z,82.40
2023-04-30T19:53:46.666Z,83.30
2023-04-30T19:56:34.720Z,84.30
2023-04-30T19:59:22.868Z,84.20
2023-04-30T20:02:11.077Z,85.00
2023-04-30T20:05:01.086Z,84.90
2023-04-30T20:07:49.196Z,86.70
2023-04-30T20:10:38.122Z,86.90
2023-04-30T20:13:26.181Z,87.00
2023-04-30T20:16:18.873Z,87.60
2023-04-30T20:19:07.217Z,87.70
2023-04-30T20:21:56.578Z,89.00
2023-04-30T20:24:45.055Z,89.50
2023-04-30T20:27:34.171Z,90.00
2023-04-30T20:30:22.240Z,90.90
2023-04-30T20:33:11.283Z,91.30
2023-04-30T20:36:00.576Z,91.60
2023-04-30T20:38:49.968Z,91.60
2023-04-30T20:41:37.975Z,91.80
2023-04-30T20:44:26.784Z,92.60
2023-04-30T20:47:15.241Z,92.90
2023-04-30T20:50:03.372Z,93.20
2023-04-30T20:52:51.388Z,93.80
2023-04-30T20:55:40.775Z,94.10
2023-04-30T20:58:28.790Z,94.30
2023-04-30T21:01:16.968Z,94.40
2023-04-30T21:04:05.193Z,94.80
2023-04-30T21:06:53.218Z,95.30
2023-04-30T21:09:41.674Z,95.20
2023-04-30T21:12:31.071Z,95.30
2023-04-30T21:15:19.111Z,95.80
2023-04-30T21:18:07.337Z,95.80
2023-04-30T21:20:56.393Z,96.90
2023-04-30T21:23:46.071Z,97.90
2023-04-30T21:26:36.571Z,98.40
2023-04-30T21:29:26.405Z,98.80
2023-04-30T21:32:14.483Z,99.10
2023-04-30T21:35:02.465Z,99.80
2023-04-30T21:37:50.508Z,99.90
2023-04-30T21:40:38.564Z,99.90
2023-04-30T21:43:26.669Z,99.90
2023-04-30T21:46:16.376Z,99.90
2023-04-30T21:49:04.440Z,99.90
2023-04-30T21:51:52.471Z,99.90
2023-04-30T21:54:40.532Z,99.90
2023-04-30T21:57:28.580Z,99.90
2023-04-30T22:00:18.266Z,99.90
2023-04-30T22:03:09.973Z,99.90
2023-04-30T22:05:58.082Z,99.90
2023-04-30T22:08:46.200Z,99.90
2023-04-30T22:11:34.188Z,99.90
2023-04-30T22:14:22.277Z,99.90
2023-04-30T22:17:10.333Z,99.90
2023-04-30T22:19:59.706Z,99.90
2023-04-30T22:22:47.719Z,99.90
2023-04-30T22:25:36.219Z,99.90
2023-04-30T22:28:24.294Z,99.90
2023-04-30T22:31:12.827Z,99.90
2023-04-30T22:34:00.865Z,99.90
2023-04-30T22:36:50.446Z,99.90
2023-04-30T22:39:38.922Z,99.90
2023-04-30T22:42:27.023Z,99.90
2023-04-30T22:45:15.391Z,99.90
2023-04-30T22:48:04.282Z,99.90
2023-04-30T22:50:52.706Z,99.90
2023-04-30T22:53:42.124Z,99.90
2023-04-30T22:56:30.176Z,99.90
2023-04-30T22:59:18.215Z,99.90
2023-04-30T23:02:06.282Z,99.90
2023-04-30T23:04:54.331Z,99.90
2023-04-30T23:07:42.351Z,99.90
2023-04-30T23:10:31.843Z,99.90
2023-04-30T23:13:19.874Z,99.90
2023-04-30T23:16:10.181Z,99.90
2023-04-30T23:18:58.347Z,99.90
2023-04-30T23:21:47.669Z,99.90
2023-04-30T23:24:37.416Z,99.90
2023-04-30T23:27:28.328Z,99.90
2023-04-30T23:30:16.353Z,99.90
2023-04-30T23:33:04.432Z,99.90
2023-04-30T23:35:53.401Z,99.90
2023-04-30T23:38:42.765Z,99.90
2023-04-30T23:41:31.504Z,99.90
2023-04-30T23:44:20.947Z,99.90
2023-04-30T23:47:09.330Z,99.90
2023-04-30T23:49:57.670Z,99.90
2023-04-30T23:52:45.919Z,99.90
2023-04-30T23:55:34.988Z,99.90
2023-04-30T23:58:23.024Z,99.90
